sensor_id;sensor_type;location;lat;lon;timestamp;P1;durP1;ratioP1;P2;durP2;ratioP2
9424;SDS011;17139;52.140;11.636;2022-10-31T00:02:07;4.43;;;3.30;;
9424;SDS011;17139;52.140;11.636;2022-10-31T00:04:33;3.70;;;3.50;;
9424;SDS011;17139;52.140;11.636;2022-10-31T00:07:00;3.47;;;3.28;;
9424;SDS011;17139;52.140;11.636;2022-10-31T00:09:27;3.65;;;3.45;;
9424;SDS011;17139;52.140;11.636;2022-10-31T00:11:56;7.28;;;4.03;;
9424;SDS011;17139;52.140;11.636;2022-10-31T00:14:22;3.42;;;3.13;;
9424;SDS011;17139;52.140;11.636;2022-10-31T00:16:49;4.53;;;4.13;;
9424;SDS011;17139;52.140;11.636;2022-10-31T00:19:16;3.80;;;3.50;;
9424;SDS011;17139;52.140;11.636;2022-10-31T00:21:43;3.50;;;3.20;;
9424;SDS011;17139;52.140;11.636;2022-10-31T00:24:10;3.08;;;2.88;;
9424;SDS011;17139;52.140;11.636;2022-10-31T00:26:37;3.53;;;3.33;;
9424;SDS011;17139;52.140;11.636;2022-10-31T00:29:06;5.75;;;3.17;;
9424;SDS011;17139;52.140;11.636;2022-10-31T00:31:33;3.25;;;3.03;;
9424;SDS011;17139;52.140;11.636;2022-10-31T00:34:00;4.10;;;3.70;;
9424;SDS011;17139;52.140;11.636;2022-10-31T00:36:28;3.13;;;2.80;;
9424;SDS011;17139;52.140;11.636;2022-10-31T00:38:55;3.70;;;3.40;;
9424;SDS011;17139;52.140;11.636;2022-10-31T00:41:24;4.20;;;3.60;;
9424;SDS011;17139;52.140;11.636;2022-10-31T00:43:51;8.23;;;3.45;;
9424;SDS011;17139;52.140;11.636;2022-10-31T00:46:19;4.03;;;3.63;;
9424;SDS011;17139;52.140;11.636;2022-10-31T00:48:46;4.53;;;3.08;;
9424;SDS011;17139;52.140;11.636;2022-10-31T00:51:13;2.50;;;2.40;;
9424;SDS011;17139;52.140;11.636;2022-10-31T00:53:40;4.43;;;4.05;;
9424;SDS011;17139;52.140;11.636;2022-10-31T00:56:07;3.55;;;3.25;;
9424;SDS011;17139;52.140;11.636;2022-10-31T00:58:34;9.13;;;2.78;;
9424;SDS011;17139;52.140;11.636;2022-10-31T01:01:01;3.53;;;3.20;;
9424;SDS011;17139;52.140;11.636;2022-10-31T01:03:30;3.78;;;2.85;;
9424;SDS011;17139;52.140;11.636;2022-10-31T01:05:59;5.25;;;3.00;;
9424;SDS011;17139;52.140;11.636;2022-10-31T01:08:27;4.15;;;2.90;;
9424;SDS011;17139;52.140;11.636;2022-10-31T01:11:02;3.58;;;3.30;;
9424;SDS011;17139;52.140;11.636;2022-10-31T01:13:31;5.55;;;2.80;;
9424;SDS011;17139;52.140;11.636;2022-10-31T01:15:59;2.92;;;2.70;;
9424;SDS011;17139;52.140;11.636;2022-10-31T01:18:26;2.42;;;2.33;;
9424;SDS011;17139;52.140;11.636;2022-10-31T01:20:58;3.25;;;2.97;;
9424;SDS011;17139;52.140;11.636;2022-10-31T01:23:26;3.53;;;3.33;;
9424;SDS011;17139;52.140;11.636;2022-10-31T01:26:04;3.55;;;2.92;;
9424;SDS011;17139;52.140;11.636;2022-10-31T01:28:34;4.00;;;3.40;;
9424;SDS011;17139;52.140;11.636;2022-10-31T01:31:03;2.67;;;2.58;;
9424;SDS011;17139;52.140;11.636;2022-10-31T01:33:31;3.40;;;3.03;;
9424;SDS011;17139;52.140;11.636;2022-10-31T01:36:00;4.25;;;2.80;;
9424;SDS011;17139;52.140;11.636;2022-10-31T01:38:27;2.75;;;2.65;;
9424;SDS011;17139;52.140;11.636;2022-10-31T01:40:54;3.22;;;2.97;;
9424;SDS011;17139;52.140;11.636;2022-10-31T01:43:21;4.07;;;2.67;;
9424;SDS011;17139;52.140;11.636;2022-10-31T01:45:50;3.28;;;3.08;;
9424;SDS011;17139;52.140;11.636;2022-10-31T01:48:20;2.90;;;2.80;;
9424;SDS011;17139;52.140;11.636;2022-10-31T01:50:52;3.28;;;2.63;;
9424;SDS011;17139;52.140;11.636;2022-10-31T01:53:22;4.05;;;2.67;;
9424;SDS011;17139;52.140;11.636;2022-10-31T01:55:50;5.93;;;2.50;;
9424;SDS011;17139;52.140;11.636;2022-10-31T01:58:18;2.33;;;2.22;;
9424;SDS011;17139;52.140;11.636;2022-10-31T02:00:49;3.60;;;3.30;;
9424;SDS011;17139;52.140;11.636;2022-10-31T02:03:20;2.88;;;2.67;;
9424;SDS011;17139;52.140;11.636;2022-10-31T02:05:47;2.88;;;2.67;;
9424;SDS011;17139;52.140;11.636;2022-10-31T02:08:16;5.95;;;2.15;;
9424;SDS011;17139;52.140;11.636;2022-10-31T02:10:49;2.55;;;2.45;;
9424;SDS011;17139;52.140;11.636;2022-10-31T02:13:16;2.78;;;2.58;;
9424;SDS011;17139;52.140;11.636;2022-10-31T02:15:45;3.35;;;2.40;;
9424;SDS011;17139;52.140;11.636;2022-10-31T02:18:15;2.80;;;2.60;;
9424;SDS011;17139;52.140;11.636;2022-10-31T02:20:45;2.88;;;2.67;;
9424;SDS011;17139;52.140;11.636;2022-10-31T02:26:35;2.53;;;2.42;;
9424;SDS011;17139;52.140;11.636;2022-10-31T02:32:18;2.33;;;2.17;;
9424;SDS011;17139;52.140;11.636;2022-10-31T02:34:51;4.03;;;2.20;;
9424;SDS011;17139;52.140;11.636;2022-10-31T02:37:25;3.63;;;3.30;;
9424;SDS011;17139;52.140;11.636;2022-10-31T02:39:56;4.30;;;3.13;;
9424;SDS011;17139;52.140;11.636;2022-10-31T02:42:31;3.13;;;2.92;;
9424;SDS011;17139;52.140;11.636;2022-10-31T02:45:03;3.55;;;3.15;;
9424;SDS011;17139;52.140;11.636;2022-10-31T02:47:39;2.35;;;2.25;;
9424;SDS011;17139;52.140;11.636;2022-10-31T02:50:08;2.50;;;2.40;;
9424;SDS011;17139;52.140;11.636;2022-10-31T02:52:40;2.22;;;2.13;;
9424;SDS011;17139;52.140;11.636;2022-10-31T02:55:10;2.55;;;2.28;;
9424;SDS011;17139;52.140;11.636;2022-10-31T02:57:39;2.58;;;2.47;;
9424;SDS011;17139;52.140;11.636;2022-10-31T03:00:08;3.22;;;3.03;;
9424;SDS011;17139;52.140;11.636;2022-10-31T03:02:43;2.75;;;2.55;;
9424;SDS011;17139;52.140;11.636;2022-10-31T03:05:27;3.67;;;2.70;;
9424;SDS011;17139;52.140;11.636;2022-10-31T03:08:08;3.45;;;3.25;;
9424;SDS011;17139;52.140;11.636;2022-10-31T03:10:42;2.95;;;2.83;;
9424;SDS011;17139;52.140;11.636;2022-10-31T03:13:16;2.30;;;2.20;;
9424;SDS011;17139;52.140;11.636;2022-10-31T03:15:49;5.72;;;3.65;;
9424;SDS011;17139;52.140;11.636;2022-10-31T03:18:22;3.63;;;2.50;;
9424;SDS011;17139;52.140;11.636;2022-10-31T03:20:54;3.17;;;2.47;;
9424;SDS011;17139;52.140;11.636;2022-10-31T03:23:25;2.72;;;2.55;;
9424;SDS011;17139;52.140;11.636;2022-10-31T03:25:53;2.80;;;2.40;;
9424;SDS011;17139;52.140;11.636;2022-10-31T03:28:22;2.72;;;2.53;;
9424;SDS011;17139;52.140;11.636;2022-10-31T03:30:54;5.25;;;3.15;;
9424;SDS011;17139;52.140;11.636;2022-10-31T03:33:25;2.65;;;2.55;;
9424;SDS011;17139;52.140;11.636;2022-10-31T03:35:55;4.13;;;3.35;;
9424;SDS011;17139;52.140;11.636;2022-10-31T03:38:26;2.80;;;2.60;;
9424;SDS011;17139;52.140;11.636;2022-10-31T03:40:54;3.15;;;2.95;;
9424;SDS011;17139;52.140;11.636;2022-10-31T03:43:26;6.53;;;2.85;;
9424;SDS011;17139;52.140;11.636;2022-10-31T03:45:58;4.03;;;3.72;;
9424;SDS011;17139;52.140;11.636;2022-10-31T03:48:27;3.05;;;2.85;;
9424;SDS011;17139;52.140;11.636;2022-10-31T03:50:56;4.55;;;3.80;;
9424;SDS011;17139;52.140;11.636;2022-10-31T03:53:30;2.85;;;2.65;;
9424;SDS011;17139;52.140;11.636;2022-10-31T03:56:01;3.80;;;2.85;;
9424;SDS011;17139;52.140;11.636;2022-10-31T03:58:32;3.08;;;2.97;;
9424;SDS011;17139;52.140;11.636;2022-10-31T04:01:05;6.60;;;3.13;;
9424;SDS011;17139;52.140;11.636;2022-10-31T04:03:37;4.80;;;3.20;;
9424;SDS011;17139;52.140;11.636;2022-10-31T04:06:05;3.08;;;2.72;;
9424;SDS011;17139;52.140;11.636;2022-10-31T04:08:37;3.45;;;3.15;;
9424;SDS011;17139;52.140;11.636;2022-10-31T04:11:06;6.95;;;3.28;;
9424;SDS011;17139;52.140;11.636;2022-10-31T04:13:35;8.05;;;3.45;;
9424;SDS011;17139;52.140;11.636;2022-10-31T04:16:06;6.32;;;2.92;;
9424;SDS011;17139;52.140;11.636;2022-10-31T04:18:34;2.97;;;2.67;;
9424;SDS011;17139;52.140;11.636;2022-10-31T04:21:03;4.00;;;3.30;;
9424;SDS011;17139;52.140;11.636;2022-10-31T04:23:31;2.80;;;2.65;;
9424;SDS011;17139;52.140;11.636;2022-10-31T04:26:00;6.80;;;3.40;;
9424;SDS011;17139;52.140;11.636;2022-10-31T04:28:27;3.00;;;2.90;;
9424;SDS011;17139;52.140;11.636;2022-10-31T04:30:54;3.65;;;3.35;;
9424;SDS011;17139;52.140;11.636;2022-10-31T04:33:21;2.92;;;2.80;;
9424;SDS011;17139;52.140;11.636;2022-10-31T04:35:48;2.95;;;2.85;;
9424;SDS011;17139;52.140;11.636;2022-10-31T04:38:16;3.40;;;3.10;;
9424;SDS011;17139;52.140;11.636;2022-10-31T04:40:44;3.03;;;2.60;;
9424;SDS011;17139;52.140;11.636;2022-10-31T04:43:11;6.72;;;3.28;;
9424;SDS011;17139;52.140;11.636;2022-10-31T04:45:38;3.78;;;3.47;;
9424;SDS011;17139;52.140;11.636;2022-10-31T04:48:05;3.47;;;3.17;;
9424;SDS011;17139;52.140;11.636;2022-10-31T04:50:32;3.75;;;3.45;;
9424;SDS011;17139;52.140;11.636;2022-10-31T04:52:59;3.45;;;3.28;;
9424;SDS011;17139;52.140;11.636;2022-10-31T04:55:28;4.07;;;3.70;;
9424;SDS011;17139;52.140;11.636;2022-10-31T04:57:55;3.65;;;3.45;;
9424;SDS011;17139;52.140;11.636;2022-10-31T05:00:22;4.03;;;3.83;;
9424;SDS011;17139;52.140;11.636;2022-10-31T05:02:50;8.15;;;5.13;;
9424;SDS011;17139;52.140;11.636;2022-10-31T05:05:19;5.15;;;3.95;;
9424;SDS011;17139;52.140;11.636;2022-10-31T05:07:47;4.00;;;3.70;;
9424;SDS011;17139;52.140;11.636;2022-10-31T05:10:16;3.67;;;3.47;;
9424;SDS011;17139;52.140;11.636;2022-10-31T05:12:48;4.00;;;3.63;;
9424;SDS011;17139;52.140;11.636;2022-10-31T05:15:17;4.10;;;3.75;;
9424;SDS011;17139;52.140;11.636;2022-10-31T05:17:45;3.85;;;3.58;;
9424;SDS011;17139;52.140;11.636;2022-10-31T05:20:12;5.45;;;3.78;;
9424;SDS011;17139;52.140;11.636;2022-10-31T05:22:43;5.35;;;4.85;;
9424;SDS011;17139;52.140;11.636;2022-10-31T05:25:11;10.52;;;4.68;;
9424;SDS011;17139;52.140;11.636;2022-10-31T05:27:39;5.78;;;5.22;;
9424;SDS011;17139;52.140;11.636;2022-10-31T05:30:08;17.43;;;6.13;;
9424;SDS011;17139;52.140;11.636;2022-10-31T05:32:37;9.97;;;6.20;;
9424;SDS011;17139;52.140;11.636;2022-10-31T05:35:05;6.38;;;5.88;;
9424;SDS011;17139;52.140;11.636;2022-10-31T05:37:33;6.65;;;6.13;;
9424;SDS011;17139;52.140;11.636;2022-10-31T05:40:01;15.60;;;9.07;;
9424;SDS011;17139;52.140;11.636;2022-10-31T05:42:28;14.55;;;6.90;;
9424;SDS011;17139;52.140;11.636;2022-10-31T05:44:55;6.88;;;6.35;;
9424;SDS011;17139;52.140;11.636;2022-10-31T05:47:23;7.80;;;5.78;;
9424;SDS011;17139;52.140;11.636;2022-10-31T05:49:50;8.07;;;6.57;;
9424;SDS011;17139;52.140;11.636;2022-10-31T05:52:17;5.90;;;5.43;;
9424;SDS011;17139;52.140;11.636;2022-10-31T05:54:44;6.57;;;6.03;;
9424;SDS011;17139;52.140;11.636;2022-10-31T05:57:12;8.87;;;6.50;;
9424;SDS011;17139;52.140;11.636;2022-10-31T05:59:38;6.87;;;6.30;;
9424;SDS011;17139;52.140;11.636;2022-10-31T06:02:06;6.47;;;5.87;;
9424;SDS011;17139;52.140;11.636;2022-10-31T06:04:35;7.47;;;5.75;;
9424;SDS011;17139;52.140;11.636;2022-10-31T06:07:02;7.05;;;4.75;;
9424;SDS011;17139;52.140;11.636;2022-10-31T06:09:29;16.42;;;9.93;;
9424;SDS011;17139;52.140;11.636;2022-10-31T06:11:56;7.00;;;6.37;;
9424;SDS011;17139;52.140;11.636;2022-10-31T06:14:23;11.60;;;9.85;;
9424;SDS011;17139;52.140;11.636;2022-10-31T06:16:50;8.38;;;7.65;;
9424;SDS011;17139;52.140;11.636;2022-10-31T06:19:17;8.23;;;7.30;;
9424;SDS011;17139;52.140;11.636;2022-10-31T06:21:45;9.93;;;7.38;;
9424;SDS011;17139;52.140;11.636;2022-10-31T06:24:12;10.90;;;7.03;;
9424;SDS011;17139;52.140;11.636;2022-10-31T06:26:39;9.43;;;6.45;;
9424;SDS011;17139;52.140;11.636;2022-10-31T06:29:07;13.93;;;9.13;;
9424;SDS011;17139;52.140;11.636;2022-10-31T06:31:34;18.50;;;9.40;;
9424;SDS011;17139;52.140;11.636;2022-10-31T06:34:00;12.03;;;8.70;;
9424;SDS011;17139;52.140;11.636;2022-10-31T06:36:27;15.53;;;8.33;;
9424;SDS011;17139;52.140;11.636;2022-10-31T06:38:56;10.40;;;8.70;;
9424;SDS011;17139;52.140;11.636;2022-10-31T06:41:23;14.63;;;10.27;;
9424;SDS011;17139;52.140;11.636;2022-10-31T06:43:50;13.18;;;9.88;;
9424;SDS011;17139;52.140;11.636;2022-10-31T06:46:17;19.98;;;11.43;;
9424;SDS011;17139;52.140;11.636;2022-10-31T06:48:43;30.55;;;17.67;;
9424;SDS011;17139;52.140;11.636;2022-10-31T06:51:10;21.65;;;13.05;;
9424;SDS011;17139;52.140;11.636;2022-10-31T06:53:37;18.00;;;11.52;;
9424;SDS011;17139;52.140;11.636;2022-10-31T06:56:06;23.80;;;13.35;;
9424;SDS011;17139;52.140;11.636;2022-10-31T06:58:33;19.67;;;12.65;;
9424;SDS011;17139;52.140;11.636;2022-10-31T07:01:01;17.20;;;11.23;;
9424;SDS011;17139;52.140;11.636;2022-10-31T07:03:28;20.33;;;11.85;;
9424;SDS011;17139;52.140;11.636;2022-10-31T07:05:55;30.30;;;14.55;;
9424;SDS011;17139;52.140;11.636;2022-10-31T07:08:22;21.00;;;13.07;;
9424;SDS011;17139;52.140;11.636;2022-10-31T07:10:51;24.88;;;12.68;;
9424;SDS011;17139;52.140;11.636;2022-10-31T07:13:20;24.42;;;13.77;;
9424;SDS011;17139;52.140;11.636;2022-10-31T07:15:50;26.52;;;15.18;;
9424;SDS011;17139;52.140;11.636;2022-10-31T07:18:19;19.73;;;13.38;;
9424;SDS011;17139;52.140;11.636;2022-10-31T07:20:46;33.75;;;18.42;;
9424;SDS011;17139;52.140;11.636;2022-10-31T07:23:13;27.73;;;15.65;;
9424;SDS011;17139;52.140;11.636;2022-10-31T07:25:40;20.17;;;13.90;;
9424;SDS011;17139;52.140;11.636;2022-10-31T07:28:07;27.17;;;15.25;;
9424;SDS011;17139;52.140;11.636;2022-10-31T07:30:36;29.90;;;15.02;;
9424;SDS011;17139;52.140;11.636;2022-10-31T07:33:04;27.85;;;15.43;;
9424;SDS011;17139;52.140;11.636;2022-10-31T07:35:32;29.13;;;15.27;;
9424;SDS011;17139;52.140;11.636;2022-10-31T07:38:06;35.03;;;16.35;;
9424;SDS011;17139;52.140;11.636;2022-10-31T07:40:33;24.67;;;15.18;;
9424;SDS011;17139;52.140;11.636;2022-10-31T07:43:00;33.35;;;16.40;;
9424;SDS011;17139;52.140;11.636;2022-10-31T07:45:27;31.63;;;16.67;;
9424;SDS011;17139;52.140;11.636;2022-10-31T07:47:55;29.17;;;15.55;;
9424;SDS011;17139;52.140;11.636;2022-10-31T07:50:23;46.40;;;23.13;;
9424;SDS011;17139;52.140;11.636;2022-10-31T07:52:57;38.08;;;18.60;;
9424;SDS011;17139;52.140;11.636;2022-10-31T07:55:25;45.17;;;23.20;;
9424;SDS011;17139;52.140;11.636;2022-10-31T07:57:56;37.60;;;19.08;;
9424;SDS011;17139;52.140;11.636;2022-10-31T08:00:26;31.05;;;15.38;;
9424;SDS011;17139;52.140;11.636;2022-10-31T08:02:58;24.67;;;14.57;;
9424;SDS011;17139;52.140;11.636;2022-10-31T08:05:26;33.63;;;15.00;;
9424;SDS011;17139;52.140;11.636;2022-10-31T08:07:53;33.83;;;16.05;;
9424;SDS011;17139;52.140;11.636;2022-10-31T08:10:20;31.40;;;16.95;;
9424;SDS011;17139;52.140;11.636;2022-10-31T08:12:54;36.80;;;17.33;;
9424;SDS011;17139;52.140;11.636;2022-10-31T08:15:21;26.13;;;16.05;;
9424;SDS011;17139;52.140;11.636;2022-10-31T08:17:48;31.23;;;15.70;;
9424;SDS011;17139;52.140;11.636;2022-10-31T08:20:16;33.20;;;17.35;;
9424;SDS011;17139;52.140;11.636;2022-10-31T08:22:51;26.45;;;14.60;;
9424;SDS011;17139;52.140;11.636;2022-10-31T08:25:22;40.22;;;22.58;;
9424;SDS011;17139;52.140;11.636;2022-10-31T08:27:50;44.45;;;19.42;;
9424;SDS011;17139;52.140;11.636;2022-10-31T08:30:18;38.78;;;22.77;;
9424;SDS011;17139;52.140;11.636;2022-10-31T08:32:45;34.53;;;18.83;;
9424;SDS011;17139;52.140;11.636;2022-10-31T08:35:13;34.47;;;17.30;;
9424;SDS011;17139;52.140;11.636;2022-10-31T08:37:42;27.48;;;16.27;;
9424;SDS011;17139;52.140;11.636;2022-10-31T08:40:09;32.50;;;18.33;;
9424;SDS011;17139;52.140;11.636;2022-10-31T08:42:38;29.75;;;17.63;;
9424;SDS011;17139;52.140;11.636;2022-10-31T08:45:05;29.00;;;16.73;;
9424;SDS011;17139;52.140;11.636;2022-10-31T08:47:33;32.80;;;17.55;;
9424;SDS011;17139;52.140;11.636;2022-10-31T08:50:00;30.95;;;17.95;;
9424;SDS011;17139;52.140;11.636;2022-10-31T08:52:27;25.65;;;16.10;;
9424;SDS011;17139;52.140;11.636;2022-10-31T08:54:55;30.45;;;17.05;;
9424;SDS011;17139;52.140;11.636;2022-10-31T08:57:22;33.30;;;18.55;;
9424;SDS011;17139;52.140;11.636;2022-10-31T08:59:49;31.13;;;17.17;;
9424;SDS011;17139;52.140;11.636;2022-10-31T09:02:17;29.38;;;16.08;;
9424;SDS011;17139;52.140;11.636;2022-10-31T09:04:44;38.67;;;21.58;;
9424;SDS011;17139;52.140;11.636;2022-10-31T09:07:11;27.55;;;16.13;;
9424;SDS011;17139;52.140;11.636;2022-10-31T09:09:38;29.35;;;16.52;;
9424;SDS011;17139;52.140;11.636;2022-10-31T09:12:07;25.55;;;15.15;;
9424;SDS011;17139;52.140;11.636;2022-10-31T09:14:34;33.55;;;16.35;;
9424;SDS011;17139;52.140;11.636;2022-10-31T09:17:00;29.73;;;15.65;;
9424;SDS011;17139;52.140;11.636;2022-10-31T09:19:27;28.65;;;15.15;;
9424;SDS011;17139;52.140;11.636;2022-10-31T09:21:55;29.00;;;15.10;;
9424;SDS011;17139;52.140;11.636;2022-10-31T09:24:22;33.00;;;16.90;;
9424;SDS011;17139;52.140;11.636;2022-10-31T09:26:49;37.50;;;16.92;;
9424;SDS011;17139;52.140;11.636;2022-10-31T09:29:17;29.55;;;15.95;;
9424;SDS011;17139;52.140;11.636;2022-10-31T09:31:44;23.08;;;14.05;;
9424;SDS011;17139;52.140;11.636;2022-10-31T09:34:11;30.58;;;19.67;;
9424;SDS011;17139;52.140;11.636;2022-10-31T09:36:38;27.00;;;16.27;;
9424;SDS011;17139;52.140;11.636;2022-10-31T09:39:05;32.78;;;20.30;;
9424;SDS011;17139;52.140;11.636;2022-10-31T09:41:37;34.40;;;18.63;;
9424;SDS011;17139;52.140;11.636;2022-10-31T09:44:17;26.15;;;15.43;;
9424;SDS011;17139;52.140;11.636;2022-10-31T09:46:53;27.17;;;14.25;;
9424;SDS011;17139;52.140;11.636;2022-10-31T09:49:27;32.50;;;16.13;;
9424;SDS011;17139;52.140;11.636;2022-10-31T09:52:03;29.33;;;14.65;;
9424;SDS011;17139;52.140;11.636;2022-10-31T09:54:37;25.05;;;14.57;;
9424;SDS011;17139;52.140;11.636;2022-10-31T09:57:09;28.42;;;15.38;;
9424;SDS011;17139;52.140;11.636;2022-10-31T09:59:41;22.05;;;14.77;;
9424;SDS011;17139;52.140;11.636;2022-10-31T10:02:13;28.20;;;16.65;;
9424;SDS011;17139;52.140;11.636;2022-10-31T10:04:47;29.08;;;15.27;;
9424;SDS011;17139;52.140;11.636;2022-10-31T10:07:20;31.42;;;19.75;;
9424;SDS011;17139;52.140;11.636;2022-10-31T10:09:52;34.28;;;18.33;;
9424;SDS011;17139;52.140;11.636;2022-10-31T10:12:21;32.55;;;17.98;;
9424;SDS011;17139;52.140;11.636;2022-10-31T10:15:04;29.20;;;16.55;;
9424;SDS011;17139;52.140;11.636;2022-10-31T10:17:46;23.75;;;15.85;;
9424;SDS011;17139;52.140;11.636;2022-10-31T10:20:27;34.58;;;18.50;;
9424;SDS011;17139;52.140;11.636;2022-10-31T10:23:05;27.52;;;15.73;;
9424;SDS011;17139;52.140;11.636;2022-10-31T10:25:47;27.77;;;16.88;;
9424;SDS011;17139;52.140;11.636;2022-10-31T10:28:19;27.65;;;16.25;;
9424;SDS011;17139;52.140;11.636;2022-10-31T10:30:52;31.73;;;17.63;;
9424;SDS011;17139;52.140;11.636;2022-10-31T10:33:23;27.90;;;16.00;;
9424;SDS011;17139;52.140;11.636;2022-10-31T10:35:58;31.17;;;16.23;;
9424;SDS011;17139;52.140;11.636;2022-10-31T10:38:29;27.70;;;17.23;;
9424;SDS011;17139;52.140;11.636;2022-10-31T10:41:01;36.25;;;16.70;;
9424;SDS011;17139;52.140;11.636;2022-10-31T10:43:33;41.03;;;21.70;;
9424;SDS011;17139;52.140;11.636;2022-10-31T10:49:06;31.77;;;17.52;;
9424;SDS011;17139;52.140;11.636;2022-10-31T10:51:43;28.52;;;16.75;;
9424;SDS011;17139;52.140;11.636;2022-10-31T10:54:31;36.28;;;17.75;;
9424;SDS011;17139;52.140;11.636;2022-10-31T10:57:22;29.25;;;16.85;;
9424;SDS011;17139;52.140;11.636;2022-10-31T11:00:00;33.58;;;17.92;;
9424;SDS011;17139;52.140;11.636;2022-10-31T11:02:32;32.90;;;17.00;;
9424;SDS011;17139;52.140;11.636;2022-10-31T11:05:00;32.58;;;16.73;;
9424;SDS011;17139;52.140;11.636;2022-10-31T11:07:36;27.02;;;15.27;;
9424;SDS011;17139;52.140;11.636;2022-10-31T11:10:05;32.55;;;17.83;;
9424;SDS011;17139;52.140;11.636;2022-10-31T11:12:40;32.10;;;17.52;;
9424;SDS011;17139;52.140;11.636;2022-10-31T11:15:17;40.55;;;21.55;;
9424;SDS011;17139;52.140;11.636;2022-10-31T11:17:48;35.70;;;18.75;;
9424;SDS011;17139;52.140;11.636;2022-10-31T11:20:23;26.35;;;16.63;;
9424;SDS011;17139;52.140;11.636;2022-10-31T11:23:04;27.05;;;16.83;;
9424;SDS011;17139;52.140;11.636;2022-10-31T11:25:47;25.10;;;17.15;;
9424;SDS011;17139;52.140;11.636;2022-10-31T11:28:16;27.60;;;16.35;;
9424;SDS011;17139;52.140;11.636;2022-10-31T11:30:44;31.20;;;16.33;;
9424;SDS011;17139;52.140;11.636;2022-10-31T11:33:17;30.33;;;16.83;;
9424;SDS011;17139;52.140;11.636;2022-10-31T11:35:47;32.78;;;18.02;;
9424;SDS011;17139;52.140;11.636;2022-10-31T11:38:16;27.33;;;16.80;;
9424;SDS011;17139;52.140;11.636;2022-10-31T11:40:51;25.27;;;16.83;;
9424;SDS011;17139;52.140;11.636;2022-10-31T11:43:23;34.78;;;17.33;;
9424;SDS011;17139;52.140;11.636;2022-10-31T11:45:52;32.80;;;17.13;;
9424;SDS011;17139;52.140;11.636;2022-10-31T11:48:21;35.10;;;20.77;;
9424;SDS011;17139;52.140;11.636;2022-10-31T11:50:50;31.77;;;17.83;;
9424;SDS011;17139;52.140;11.636;2022-10-31T11:53:21;24.45;;;16.17;;
9424;SDS011;17139;52.140;11.636;2022-10-31T11:56:03;29.85;;;17.75;;
9424;SDS011;17139;52.140;11.636;2022-10-31T11:58:32;22.95;;;16.02;;
9424;SDS011;17139;52.140;11.636;2022-10-31T12:01:00;30.35;;;16.45;;
9424;SDS011;17139;52.140;11.636;2022-10-31T12:03:33;31.30;;;17.20;;
9424;SDS011;17139;52.140;11.636;2022-10-31T12:06:10;25.13;;;17.33;;
9424;SDS011;17139;52.140;11.636;2022-10-31T12:08:42;32.42;;;18.33;;
9424;SDS011;17139;52.140;11.636;2022-10-31T12:11:14;38.35;;;19.17;;
9424;SDS011;17139;52.140;11.636;2022-10-31T12:14:00;29.25;;;16.13;;
9424;SDS011;17139;52.140;11.636;2022-10-31T12:16:39;33.60;;;21.47;;
9424;SDS011;17139;52.140;11.636;2022-10-31T12:19:16;24.15;;;16.77;;
9424;SDS011;17139;52.140;11.636;2022-10-31T12:21:53;29.48;;;19.23;;
9424;SDS011;17139;52.140;11.636;2022-10-31T12:24:42;23.27;;;15.95;;
9424;SDS011;17139;52.140;11.636;2022-10-31T12:27:23;25.15;;;15.13;;
9424;SDS011;17139;52.140;11.636;2022-10-31T12:30:02;28.73;;;16.92;;
9424;SDS011;17139;52.140;11.636;2022-10-31T12:32:40;25.75;;;15.13;;
9424;SDS011;17139;52.140;11.636;2022-10-31T12:35:22;34.22;;;16.20;;
9424;SDS011;17139;52.140;11.636;2022-10-31T12:38:07;27.40;;;15.93;;
9424;SDS011;17139;52.140;11.636;2022-10-31T12:40:53;31.90;;;17.08;;
9424;SDS011;17139;52.140;11.636;2022-10-31T12:43:35;35.45;;;18.05;;
9424;SDS011;17139;52.140;11.636;2022-10-31T12:46:09;35.17;;;18.08;;
9424;SDS011;17139;52.140;11.636;2022-10-31T12:49:09;28.55;;;16.17;;
9424;SDS011;17139;52.140;11.636;2022-10-31T12:51:57;31.33;;;17.10;;
9424;SDS011;17139;52.140;11.636;2022-10-31T12:57:23;27.63;;;16.98;;
9424;SDS011;17139;52.140;11.636;2022-10-31T12:59:57;30.35;;;21.08;;
9424;SDS011;17139;52.140;11.636;2022-10-31T13:02:29;27.48;;;17.42;;
9424;SDS011;17139;52.140;11.636;2022-10-31T13:05:01;33.72;;;18.45;;
9424;SDS011;17139;52.140;11.636;2022-10-31T13:07:33;32.15;;;17.77;;
9424;SDS011;17139;52.140;11.636;2022-10-31T13:10:05;25.52;;;16.25;;
9424;SDS011;17139;52.140;11.636;2022-10-31T13:12:39;34.30;;;17.95;;
9424;SDS011;17139;52.140;11.636;2022-10-31T13:15:12;27.17;;;17.27;;
9424;SDS011;17139;52.140;11.636;2022-10-31T13:17:43;30.60;;;18.45;;
9424;SDS011;17139;52.140;11.636;2022-10-31T13:20:16;26.25;;;17.10;;
9424;SDS011;17139;52.140;11.636;2022-10-31T13:22:50;34.78;;;17.50;;
9424;SDS011;17139;52.140;11.636;2022-10-31T13:25:20;37.65;;;18.83;;
9424;SDS011;17139;52.140;11.636;2022-10-31T13:27:51;30.15;;;16.73;;
9424;SDS011;17139;52.140;11.636;2022-10-31T13:30:22;35.25;;;19.48;;
9424;SDS011;17139;52.140;11.636;2022-10-31T13:32:51;30.60;;;18.58;;
9424;SDS011;17139;52.140;11.636;2022-10-31T13:35:26;39.05;;;19.20;;
9424;SDS011;17139;52.140;11.636;2022-10-31T13:38:03;35.72;;;18.48;;
9424;SDS011;17139;52.140;11.636;2022-10-31T13:40:39;36.15;;;19.00;;
9424;SDS011;17139;52.140;11.636;2022-10-31T13:43:17;34.47;;;18.40;;
9424;SDS011;17139;52.140;11.636;2022-10-31T13:45:53;34.08;;;18.00;;
9424;SDS011;17139;52.140;11.636;2022-10-31T13:48:35;32.72;;;17.23;;
9424;SDS011;17139;52.140;11.636;2022-10-31T13:51:04;31.50;;;17.15;;
9424;SDS011;17139;52.140;11.636;2022-10-31T13:53:38;30.98;;;16.92;;
9424;SDS011;17139;52.140;11.636;2022-10-31T13:56:16;34.80;;;18.85;;
9424;SDS011;17139;52.140;11.636;2022-10-31T13:58:59;36.53;;;19.08;;
9424;SDS011;17139;52.140;11.636;2022-10-31T14:01:29;36.00;;;18.65;;
9424;SDS011;17139;52.140;11.636;2022-10-31T14:04:02;37.08;;;17.80;;
9424;SDS011;17139;52.140;11.636;2022-10-31T14:06:36;23.92;;;16.02;;
9424;SDS011;17139;52.140;11.636;2022-10-31T14:09:18;32.17;;;15.68;;
9424;SDS011;17139;52.140;11.636;2022-10-31T14:11:48;41.60;;;20.80;;
9424;SDS011;17139;52.140;11.636;2022-10-31T14:14:16;32.70;;;17.50;;
9424;SDS011;17139;52.140;11.636;2022-10-31T14:16:44;33.28;;;18.27;;
9424;SDS011;17139;52.140;11.636;2022-10-31T14:19:18;26.60;;;16.88;;
9424;SDS011;17139;52.140;11.636;2022-10-31T14:21:47;26.08;;;14.98;;
9424;SDS011;17139;52.140;11.636;2022-10-31T14:24:15;29.95;;;15.43;;
9424;SDS011;17139;52.140;11.636;2022-10-31T14:26:58;35.35;;;16.90;;
9424;SDS011;17139;52.140;11.636;2022-10-31T14:29:27;28.45;;;15.40;;
9424;SDS011;17139;52.140;11.636;2022-10-31T14:31:56;26.70;;;16.20;;
9424;SDS011;17139;52.140;11.636;2022-10-31T14:34:27;23.50;;;14.98;;
9424;SDS011;17139;52.140;11.636;2022-10-31T14:37:04;24.88;;;15.38;;
9424;SDS011;17139;52.140;11.636;2022-10-31T14:42:45;25.48;;;14.27;;
9424;SDS011;17139;52.140;11.636;2022-10-31T14:45:29;30.95;;;18.92;;
9424;SDS011;17139;52.140;11.636;2022-10-31T14:48:11;29.73;;;16.73;;
9424;SDS011;17139;52.140;11.636;2022-10-31T14:50:50;32.97;;;20.05;;
9424;SDS011;17139;52.140;11.636;2022-10-31T14:53:19;29.83;;;17.70;;
9424;SDS011;17139;52.140;11.636;2022-10-31T14:55:51;23.77;;;14.35;;
9424;SDS011;17139;52.140;11.636;2022-10-31T14:58:20;23.02;;;14.27;;
9424;SDS011;17139;52.140;11.636;2022-10-31T15:00:53;27.48;;;14.82;;
9424;SDS011;17139;52.140;11.636;2022-10-31T15:03:24;27.88;;;15.05;;
9424;SDS011;17139;52.140;11.636;2022-10-31T15:05:56;27.15;;;16.45;;
9424;SDS011;17139;52.140;11.636;2022-10-31T15:08:27;23.55;;;14.77;;
9424;SDS011;17139;52.140;11.636;2022-10-31T15:10:59;25.05;;;15.52;;